Flight Track Log - Related Links

Times and Time Zones

All times are in EDT time to prevent confusion due to time zone crossing. See the DAL681 flight status page for this flight to view local times or setup timezone preferences in your user account.

Time Position Orientation Groundspeed Altitude Reporting Facility
EDT Latitude Longitude Course Direction KTS MPH feet Rate Location/Type
Sat 10:46:24 AM 33.6333 -84.4000 145° Southeast 163 188 2,200  Level Atlanta TRACON
Sat 10:47:18 AM 33.6167 -84.3333 107° East 211 243 3,100 1,850 Climbing Atlanta TRACON
Sat 10:48:24 AM 33.5667 -84.2833 140° Southeast 255 293 5,900 2,429 Climbing Atlanta TRACON
Sat 10:49:00 AM 33.2617 -84.1448 140° Southeast  Level FlightAware Approximate
Sat 10:49:24 AM 33.5000 -84.2833 180° South 274 315 8,200  Level Atlanta TRACON
Sat 10:50:00 AM 33.1640 -84.0471 140° Southeast  Level FlightAware Approximate
Sat 10:51:00 AM 33.0698 -83.9553 145° Southeast  Level FlightAware Approximate
Sat 10:51:41 AM 33.3286 -84.2203 163° South 307 353 11,800  Level Atlanta Center
Sat 10:52:41 AM 33.2472 -84.1381 140° Southeast 345 397 14,000 1,950 Climbing Atlanta Center
Sat 10:53:41 AM 33.1639 -84.0561 141° Southeast 376 433 15,700 1,900 Climbing Atlanta Center
Sat 10:54:41 AM 33.0761 -83.9719 141° Southeast 404 465 17,800 1,550 Climbing Atlanta Center
Sat 10:55:41 AM 32.9822 -83.8928 145° Southeast 404 465 18,800 1,450 Climbing Atlanta Center
Sat 10:56:41 AM 32.8839 -83.8136 146° Southeast 423 487 20,700 1,650 Climbing Atlanta Center
Sat 10:57:41 AM 32.7856 -83.7300 144° Southeast 433 498 22,100 1,414 Climbing Atlanta Center
Sat 10:59:52 AM 32.5678 -83.5236 141° Southeast 465 535 25,200 1,351 Climbing Jacksonville Center
Sat 11:00:52 AM 32.4703 -83.4269 140° Southeast 465 535 26,400 1,000 Climbing Jacksonville Center
Sat 11:01:52 AM 32.3703 -83.3281 140° Southeast 465 535 27,200 800 Climbing Jacksonville Center
Sat 11:02:52 AM 32.2683 -83.2267 140° Southeast 472 543 28,000 900 Climbing Jacksonville Center
Sat 11:03:52 AM 32.1558 -83.1158 140° Southeast 472 543 29,000 950 Climbing Jacksonville Center
Sat 11:04:52 AM 32.0517 -83.0128 140° Southeast 479 551 29,900 950 Climbing Jacksonville Center
Sat 11:05:52 AM 31.9472 -82.9122 141° Southeast 484 557 30,900 1,050 Climbing Jacksonville Center
Sat 11:06:52 AM 31.8492 -82.8069 138° Southeast 484 557 32,000 1,000 Climbing Jacksonville Center
Sat 11:07:52 AM 31.7364 -82.7217 147° Southeast 478 550 32,900 800 Climbing Jacksonville Center
Sat 11:08:52 AM 31.6256 -82.6461 150° Southeast 473 544 33,600 550 Climbing Jacksonville Center
Sat 11:09:52 AM 31.5106 -82.5683 150° Southeast 468 539 34,000 200 Climbing Jacksonville Center
Sat 11:10:52 AM 31.3956 -82.4911 150° Southeast 475 547 34,000  Level Jacksonville Center
Sat 11:11:52 AM 31.2908 -82.4233 151° Southeast 475 547 34,000 -50 Level Jacksonville Center
Sat 11:12:52 AM 31.1756 -82.3461 150° Southeast 481 554 33,900 -50 Descending Jacksonville Center
Sat 11:13:52 AM 31.0583 -82.2692 151° Southeast 481 554 33,900 50 Level Jacksonville Center
Sat 11:14:52 AM 30.9431 -82.1925 150° Southeast 481 554 34,000 50 Climbing Jacksonville Center
Sat 11:15:52 AM 30.8278 -82.1136 150° Southeast 481 554 34,000 -50 Level Jacksonville Center
Sat 11:16:52 AM 30.7125 -82.0372 150° Southeast 481 554 33,900 -50 Descending Jacksonville Center
Sat 11:17:52 AM 30.5992 -81.9608 150° Southeast 481 554 33,900 50 Level Jacksonville Center
Sat 11:18:52 AM 30.4839 -81.8778 148° Southeast 481 554 34,000 50 Climbing Jacksonville Center
Sat 11:19:52 AM 30.3664 -81.8019 151° Southeast 486 559 34,000  Level Jacksonville Center
Sat 11:20:52 AM 30.2486 -81.7264 151° Southeast 486 559 34,000  Level Jacksonville Center
Sat 11:21:52 AM 30.1206 -81.6461 152° Southeast 480 552 34,000  Level Jacksonville Center
Sat 11:22:52 AM 30.0050 -81.5711 151° Southeast 480 552 34,000  Level Jacksonville Center
Sat 11:23:52 AM 29.8892 -81.4936 150° Southeast 480 552 34,000  Level Jacksonville Center
Sat 11:24:52 AM 29.7736 -81.4114 148° Southeast 480 552 34,000  Level Jacksonville Center
Sat 11:25:52 AM 29.6661 -81.3197 143° Southeast 485 558 34,000  Level Jacksonville Center
Sat 11:26:52 AM 29.5606 -81.2261 142° Southeast 485 558 34,000  Level Jacksonville Center
Sat 11:27:52 AM 29.4547 -81.1325 142° Southeast 485 558 34,000  Level Jacksonville Center
Sat 11:30:27 AM 29.1722 -80.8989 144° Southeast 473 544 34,000 -28 Level Miami Center
Sat 11:31:27 AM 29.0644 -80.8025 142° Southeast 480 552 33,900 -50 Descending Miami Center
Sat 11:32:27 AM 28.9564 -80.7108 143° Southeast 486 559 33,900 50 Level Miami Center
Sat 11:33:27 AM 28.8525 -80.6125 140° Southeast 486 559 34,000 50 Climbing Miami Center
Sat 11:34:27 AM 28.7694 -80.5150 134° Southeast 486 559 34,000  Level Miami Center
Sat 11:35:27 AM 28.6789 -80.3794 127° Southeast 486 559 34,000  Level Miami Center
Sat 11:36:27 AM 28.6022 -80.2706 129° Southeast 486 559 34,000  Level Miami Center
Sat 11:37:27 AM 28.5175 -80.1522 129° Southeast 486 559 34,000  Level Miami Center
Sat 11:38:27 AM 28.4244 -80.0222 129° Southeast 479 551 34,000  Level Miami Center
Sat 11:39:27 AM 28.3394 -79.9017 129° Southeast 486 559 34,000  Level Miami Center
Sat 11:40:27 AM 28.2542 -79.7817 129° Southeast 486 559 34,000  Level Miami Center
Sat 11:41:27 AM 28.1711 -79.6617 128° Southeast 486 559 34,000  Level Miami Center
Sat 11:42:27 AM 28.0836 -79.5419 130° Southeast 486 559 34,000  Level Miami Center
Sat 11:43:27 AM 27.9981 -79.4222 129° Southeast 486 559 34,000 -50 Level Miami Center
Sat 11:44:27 AM 27.9144 -79.3053 129° Southeast 486 559 33,900  Descending Miami Center
Sat 11:45:27 AM 27.8286 -79.1906 130° Southeast 477 549 34,000 50 Climbing Miami Center
Sat 11:46:27 AM 27.7553 -79.0858 128° Southeast 477 549 34,000  Level Miami Center
Sat 11:47:27 AM 27.6672 -78.9669 130° Southeast 485 558 34,000 200 Level Miami Center
Sat 11:48:27 AM 27.5750 -78.8386 129° Southeast 485 558 34,400 450 Climbing Miami Center
Sat 11:49:27 AM 27.4889 -78.7225 130° Southeast 485 558 34,900 300 Climbing Miami Center
Sat 11:50:27 AM 27.3986 -78.5994 130° Southeast 485 558 35,000  Climbing Miami Center
Sat 11:51:27 AM 27.3142 -78.4836 129° Southeast 485 558 34,900  Descending Miami Center
Sat 11:52:27 AM 27.2442 -78.3914 130° Southeast 485 558 35,000 50 Climbing Miami Center
Sat 11:53:27 AM 27.1325 -78.2781 138° Southeast 485 558 35,000  Level Miami Center
Sat 11:54:27 AM 27.0417 -78.1556 130° Southeast 490 564 35,000  Level Miami Center
Sat 11:55:27 AM 26.9467 -78.0519 136° Southeast 490 564 35,000  Level Miami Center
Sat 11:56:27 AM 26.8472 -77.9253 131° Southeast 490 564 35,000  Level Miami Center
Sat 11:57:27 AM 26.7542 -77.8172 134° Southeast 485 558 35,000  Level Miami Center
Sat 11:58:27 AM 26.6608 -77.7025 132° Southeast 490 564 35,000  Level Miami Center
Sat 11:59:27 AM 26.5672 -77.5906 133° Southeast 490 564 35,000  Level Miami Center
Sat 12:00:27 PM 26.4781 -77.4808 132° Southeast 483 556 35,000  Level Miami Center
Sat 12:01:27 PM 26.3928 -77.3806 134° Southeast 489 563 35,000  Level Miami Center
Sat 12:02:27 PM 26.2992 -77.2689 133° Southeast 489 563 35,000  Level Miami Center
Sat 12:03:27 PM 26.2053 -77.1575 133° Southeast 489 563 35,000  Level Miami Center
Sat 12:04:27 PM 26.1136 -77.0508 134° Southeast 489 563 35,000  Level Miami Center
Sat 12:05:27 PM 26.0194 -76.9419 134° Southeast 484 557 35,000  Level Miami Center
Sat 12:06:27 PM 25.9275 -76.8311 133° Southeast 489 563 35,000  Level Miami Center
Sat 12:07:27 PM 25.8336 -76.7225 134° Southeast 482 555 35,000  Level Miami Center
Sat 12:08:27 PM 25.7394 -76.6142 134° Southeast 482 555 35,000  Level Miami Center
Sat 12:09:27 PM 25.6431 -76.5014 133° Southeast 488 562 35,000  Level Miami Center
Sat 12:10:27 PM 25.5508 -76.3958 134° Southeast 488 562 35,000  Level Miami Center
Sat 12:11:27 PM 25.4564 -76.2856 133° Southeast 483 556 35,000  Level Miami Center
Sat 12:12:27 PM 25.3617 -76.1756 134° Southeast 489 563 35,000  Level Miami Center
Sat 12:13:27 PM 25.2692 -76.0683 134° Southeast 489 563 35,000  Level Miami Center
Sat 12:14:27 PM 25.1725 -75.9586 134° Southeast 489 563 35,000  Level Miami Center
Sat 12:15:27 PM 25.0800 -75.8514 134° Southeast 489 563 35,000  Level Miami Center
Sat 12:16:27 PM 24.9744 -75.7378 136° Southeast 478 550 35,000  Level Miami Center
Sat 12:17:27 PM 24.8944 -75.6422 133° Southeast 478 550 35,000  Level Miami Center
Sat 12:18:27 PM 24.7994 -75.5378 135° Southeast 478 550 35,000  Level Miami Center
Sat 12:19:27 PM 24.7064 -75.4314 134° Southeast 478 550 35,000  Level Miami Center
Sat 12:20:27 PM 24.6114 -75.3228 134° Southeast 478 550 35,000  Level Miami Center
Sat 12:21:27 PM 24.5183 -75.2189 135° Southeast 478 550 35,000  Level Miami Center
Sat 12:22:27 PM 24.4250 -75.1083 133° Southeast 478 550 35,000  Level Miami Center
Sat 12:23:27 PM 24.3297 -75.0025 135° Southeast 478 550 35,000 150 Level Miami Center
Sat 12:24:27 PM 24.2344 -74.8967 135° Southeast 478 550 35,300 450 Climbing Miami Center
Sat 12:25:27 PM 24.1408 -74.7911 134° Southeast 478 550 35,900 800 Climbing Miami Center
Sat 12:26:27 PM 24.0475 -74.6858 134° Southeast 478 550 36,900 550 Climbing Miami Center
Sat 12:27:27 PM 23.9539 -74.5828 135° Southeast 478 550 37,000 50 Climbing Miami Center
Sat 12:28:27 PM 23.8625 -74.4778 134° Southeast 473 544 37,000  Level Miami Center
Sat 12:29:27 PM 23.7669 -74.3750 135° Southeast 473 544 37,000  Level Miami Center
Sat 12:30:27 PM 23.6711 -74.2703 135° Southeast 479 551 37,000  Level Miami Center
Sat 12:31:27 PM 23.5814 -74.1703 134° Southeast 472 543 37,000  Level Miami Center
Sat 12:32:27 PM 23.4878 -74.0681 135° Southeast 472 543 37,000  Level Miami Center
Sat 12:33:27 PM 23.3939 -73.9636 134° Southeast 472 543 37,000  Level Miami Center
Sat 12:34:27 PM 23.3019 -73.8594 134° Southeast 477 549 37,000  Level Miami Center
Sat 12:35:27 PM 23.2058 -73.7578 136° Southeast 477 549 37,000  Level Miami Center
Sat 12:36:27 PM 23.1053 -73.6472 135° Southeast 472 543 37,000  Level Miami Center
Sat 12:37:27 PM 23.0111 -73.5436 135° Southeast 472 543 37,000  Level Miami Center
Sat 12:38:27 PM 22.9108 -73.4425 137° Southeast 477 549 37,000  Level Miami Center
Sat 12:39:27 PM 22.8206 -73.3367 133° Southeast 477 549 37,000  Level Miami Center
Sat 12:40:27 PM 22.7242 -73.2358 136° Southeast 477 549 37,000  Level Miami Center
Sat 12:41:27 PM 22.6450 -73.1525 136° Southeast 477 549 37,000  Level Miami Center
Sat 12:42:27 PM 22.5442 -73.0408 134° Southeast 477 549 37,000  Level Miami Center
Sat 12:43:27 PM 22.4453 -72.9381 136° Southeast 482 555 37,000  Level Miami Center
Sat 12:44:27 PM 22.3508 -72.8333 134° Southeast 482 555 37,000  Level Miami Center
Sat 12:45:27 PM 22.2542 -72.7308 136° Southeast 482 555 37,000  Level Miami Center
Sat 12:46:27 PM 22.1594 -72.6283 135° Southeast 482 555 37,000  Level Miami Center
Sat 12:47:27 PM 22.0647 -72.5261 135° Southeast 482 555 37,000  Level Miami Center
Sat 12:48:27 PM 21.9658 -72.4242 136° Southeast 482 555 37,000  Level Miami Center
Sat 12:49:27 PM 21.8708 -72.3200 134° Southeast 482 555 37,000  Level Miami Center
Sat 12:50:27 PM 21.7758 -72.2183 135° Southeast 482 555 37,000  Level Miami Center
Sat 12:51:27 PM 21.6789 -72.1189 136° Southeast 482 555 37,000  Level Miami Center
Sat 12:52:27 PM 21.5819 -72.0175 136° Southeast 482 555 37,000  Level Miami Center
Sat 12:53:27 PM 21.4825 -71.9119 135° Southeast 487 560 37,000  Level Miami Center
Sat 12:54:27 PM 21.3853 -71.8086 135° Southeast 487 560 37,000  Level Miami Center
Sat 12:55:27 PM 21.2839 -71.7056 137° Southeast 487 560 37,000  Level Miami Center
Sat 12:56:27 PM 21.1864 -71.6003 135° Southeast 492 566 37,000  Level Miami Center
Sat 12:57:27 PM 21.0869 -71.4997 137° Southeast 492 566 37,000  Level Miami Center
Sat 12:58:27 PM 20.9764 -71.3819 135° Southeast 500 575 37,000  Level Miami Center
Sat 12:59:27 PM 20.8769 -71.2794 136° Southeast 500 575 37,000  Level Miami Center
Sat 01:00:27 PM 20.7794 -71.1794 136° Southeast 500 575 37,000  Level Miami Center
Sat 01:01:27 PM 20.6797 -71.0750 136° Southeast 500 575 37,000  Level Miami Center
Sat 01:02:27 PM 20.5797 -70.9708 136° Southeast 500 575 37,000  Level Miami Center
Sat 01:03:27 PM 20.4822 -70.8708 136° Southeast 500 575 37,000  Level Miami Center
Sat 01:05:00 PM 20.3336 -70.7626 167° South  Level FlightAware Approximate
Sat 01:12:00 PM 19.5826 -70.3491 131° Southeast  Level FlightAware Approximate
Sat 01:13:00 PM 19.4996 -70.2495 128° Southeast  Level FlightAware Approximate
Sat 01:14:00 PM 19.4218 -70.1455 128° Southeast  Level FlightAware Approximate
Sat 01:15:00 PM 19.3438 -70.0416 128° Southeast  Level FlightAware Approximate
Sat 01:16:00 PM 19.2658 -69.9377 128° Southeast  Level FlightAware Approximate
Sat 01:17:00 PM 19.1544 -69.8863 164° South  Level FlightAware Approximate
Sat 01:18:00 PM 19.0338 -69.8502 164° South  Level FlightAware Approximate
Sat 01:19:00 PM 18.9136 -69.8131 164° South  Level FlightAware Approximate
Sat 01:20:00 PM 18.7935 -69.7756 162° South  Level FlightAware Approximate
Sat 01:21:00 PM 18.6740 -69.7358 162° South  Level FlightAware Approximate
Sat 01:22:00 PM 18.5554 -69.6944 169° South  Level FlightAware Approximate
Sat 01:23:00 PM 18.4356 -69.6576 159° South  Level FlightAware Approximate
Sat 01:24:00 PM 18.4297 -69.6689 159° South  Level Estimated
Sat 01:25:00 PM 18.4297 -69.6689 159° South  Level Estimated
Sat 01:26:00 PM 18.4297 -69.6689 159° South  Level Estimated
Sat 01:27:00 PM 18.4297 -69.6689 159° South  Level Estimated
Sat 01:28:00 PM 18.4297 -69.6689 159° South  Level Estimated
Sat 01:29:00 PM 18.4297 -69.6689 159° South  Level Estimated
Sat 01:30:00 PM 18.4297 -69.6689 159° South  Level Estimated

Login

Don't have an account? Register now (free) for customized features, flight alerts, and more!